EWG1KF EDDH-EDDS
Flight info
| Callsign | EWG1KF |
|---|---|
| Flight time | 0h 51m |
| Altitude | 34000 |
| Route | AMLUH2C AMLUH M852 DENIX DCT OBATU DCT BERXO/N0451F350 DCT SILWE DCT OSBIT P605 TOSTU T726 LBU |
| Aircraft | A319/M-SDE2E3FGIJ1RWXYZ/EB1 |
Departure
| Time | 2026-04-20 14:01 |
|---|---|
| Airport | Hamburg Helmut Schmidt Airport (EDDH) |
Arrival
| Time | 2026-04-20 14:53 |
|---|---|
| Airport | Stuttgart Airport (EDDS) |
| Time | Latitude | Longitude | Altitude | Speed | Heading |
|---|---|---|---|---|---|
| 2026-04-20 13:13 | 53.62776 | 10.00281 | 49 ft | 0 kts | 63° |
| 2026-04-20 13:50 | 53.62775 | 10.00280 | 48 ft | 1 kts | 63° |
| 2026-04-20 13:50 | 53.62764 | 10.00244 | 46 ft | 4 kts | 57° |
| 2026-04-20 13:51 | 53.62748 | 10.00208 | 46 ft | 4 kts | 44° |
| 2026-04-20 13:51 | 53.62727 | 10.00184 | 46 ft | 4 kts | 8° |
| 2026-04-20 13:51 | 53.62712 | 10.00186 | 47 ft | 1 kts | 333° |
| 2026-04-20 13:51 | 53.62710 | 10.00188 | 48 ft | 0 kts | 333° |
| 2026-04-20 13:54 | 53.62711 | 10.00187 | 48 ft | 1 kts | 333° |
| 2026-04-20 13:54 | 53.62717 | 10.00182 | 48 ft | 1 kts | 333° |
| 2026-04-20 13:55 | 53.62720 | 10.00179 | 48 ft | 1 kts | 333° |
| 2026-04-20 13:55 | 53.62729 | 10.00172 | 46 ft | 2 kts | 333° |
| 2026-04-20 13:55 | 53.62746 | 10.00158 | 48 ft | 4 kts | 333° |
| 2026-04-20 13:55 | 53.62772 | 10.00135 | 48 ft | 5 kts | 333° |
| 2026-04-20 13:56 | 53.62808 | 10.00105 | 48 ft | 6 kts | 333° |
| 2026-04-20 13:56 | 53.62833 | 10.00073 | 48 ft | 0 kts | 311° |
| 2026-04-20 13:56 | 53.62836 | 10.00034 | 48 ft | 9 kts | 262° |
| 2026-04-20 13:56 | 53.62762 | 9.99921 | 46 ft | 17 kts | 209° |
| 2026-04-20 13:57 | 53.62658 | 9.99815 | 46 ft | 18 kts | 223° |
| 2026-04-20 13:57 | 53.62623 | 9.99623 | 47 ft | 17 kts | 260° |
| 2026-04-20 13:57 | 53.62600 | 9.99419 | 47 ft | 18 kts | 259° |
| 2026-04-20 13:57 | 53.62576 | 9.99208 | 44 ft | 19 kts | 259° |
| 2026-04-20 13:58 | 53.62552 | 9.99001 | 47 ft | 18 kts | 258° |
| 2026-04-20 13:58 | 53.62527 | 9.98787 | 47 ft | 19 kts | 258° |
| 2026-04-20 13:58 | 53.62501 | 9.98568 | 47 ft | 19 kts | 259° |
| 2026-04-20 13:58 | 53.62478 | 9.98356 | 45 ft | 16 kts | 259° |
| 2026-04-20 13:59 | 53.62452 | 9.98169 | 47 ft | 17 kts | 248° |
| 2026-04-20 13:59 | 53.62388 | 9.98006 | 47 ft | 17 kts | 231° |
| 2026-04-20 13:59 | 53.62308 | 9.97846 | 47 ft | 18 kts | 230° |
| 2026-04-20 13:59 | 53.62227 | 9.97680 | 47 ft | 19 kts | 231° |
| 2026-04-20 14:00 | 53.62174 | 9.97525 | 46 ft | 15 kts | 265° |
| 2026-04-20 14:00 | 53.62233 | 9.97376 | 42 ft | 18 kts | 330° |
| 2026-04-20 14:00 | 53.62314 | 9.97360 | 40 ft | 8 kts | 40° |
| 2026-04-20 14:00 | 53.62323 | 9.97377 | 38 ft | 1 kts | 49° |
| 2026-04-20 14:01 | 53.62412 | 9.97550 | 40 ft | 57 kts | 50° |
| 2026-04-20 14:01 | 53.62823 | 9.98387 | 46 ft | 129 kts | 50° |
| 2026-04-20 14:01 | 53.63411 | 9.99615 | 702 ft | 134 kts | 52° |
| 2026-04-20 14:01 | 53.64020 | 10.00863 | 1431 ft | 145 kts | 49° |
| 2026-04-20 14:02 | 53.64715 | 10.02251 | 2000 ft | 164 kts | 49° |
| 2026-04-20 14:02 | 53.65495 | 10.03828 | 2523 ft | 188 kts | 51° |
| 2026-04-20 14:02 | 53.66339 | 10.05563 | 3515 ft | 192 kts | 53° |
| 2026-04-20 14:02 | 53.67198 | 10.07319 | 4517 ft | 197 kts | 52° |
| 2026-04-20 14:03 | 53.68083 | 10.09126 | 5487 ft | 202 kts | 52° |
| 2026-04-20 14:03 | 53.68982 | 10.10958 | 6499 ft | 205 kts | 52° |
| 2026-04-20 14:03 | 53.69897 | 10.12819 | 7439 ft | 206 kts | 53° |
| 2026-04-20 14:03 | 53.70596 | 10.14937 | 8315 ft | 210 kts | 77° |
| 2026-04-20 14:04 | 53.70573 | 10.17416 | 9183 ft | 218 kts | 105° |
| 2026-04-20 14:04 | 53.69750 | 10.19679 | 9835 ft | 245 kts | 134° |
| 2026-04-20 14:04 | 53.68133 | 10.21023 | 10338 ft | 276 kts | 160° |
| 2026-04-20 14:04 | 53.66196 | 10.21936 | 10747 ft | 302 kts | 161° |
| 2026-04-20 14:05 | 53.64086 | 10.22863 | 11114 ft | 326 kts | 161° |
| 2026-04-20 14:05 | 53.61840 | 10.23826 | 11753 ft | 338 kts | 162° |
| 2026-04-20 14:05 | 53.59530 | 10.24819 | 12567 ft | 345 kts | 162° |
| 2026-04-20 14:05 | 53.57191 | 10.25841 | 13381 ft | 351 kts | 162° |
| 2026-04-20 14:06 | 53.54806 | 10.26898 | 14171 ft | 358 kts | 162° |
| 2026-04-20 14:06 | 53.52414 | 10.27968 | 14885 ft | 363 kts | 162° |
| 2026-04-20 14:06 | 53.49961 | 10.29073 | 15621 ft | 367 kts | 162° |
| 2026-04-20 14:06 | 53.47478 | 10.30192 | 16374 ft | 372 kts | 162° |
| 2026-04-20 14:07 | 53.44962 | 10.31327 | 17116 ft | 376 kts | 162° |
| 2026-04-20 14:07 | 53.42423 | 10.32470 | 17863 ft | 380 kts | 162° |
| 2026-04-20 14:07 | 53.39844 | 10.33628 | 18582 ft | 385 kts | 162° |
| 2026-04-20 14:07 | 53.37249 | 10.34794 | 19165 ft | 390 kts | 162° |
| 2026-04-20 14:08 | 53.34613 | 10.35983 | 19825 ft | 394 kts | 162° |
| 2026-04-20 14:08 | 53.31943 | 10.37184 | 20479 ft | 398 kts | 162° |
| 2026-04-20 14:08 | 53.29254 | 10.38386 | 21146 ft | 401 kts | 162° |
| 2026-04-20 14:08 | 53.26550 | 10.39586 | 21832 ft | 404 kts | 163° |
| 2026-04-20 14:09 | 53.23824 | 10.40798 | 22486 ft | 407 kts | 163° |
| 2026-04-20 14:09 | 53.21092 | 10.42019 | 23103 ft | 410 kts | 163° |
| 2026-04-20 14:09 | 53.18292 | 10.43273 | 23336 ft | 423 kts | 163° |
| 2026-04-20 14:09 | 53.15409 | 10.44559 | 23573 ft | 433 kts | 164° |
| 2026-04-20 14:10 | 53.12404 | 10.45377 | 23961 ft | 441 kts | 174° |
| 2026-04-20 14:10 | 53.09329 | 10.45352 | 24388 ft | 446 kts | 182° |
| 2026-04-20 14:10 | 53.06213 | 10.45037 | 24826 ft | 449 kts | 182° |
| 2026-04-20 14:10 | 53.03085 | 10.44723 | 25261 ft | 451 kts | 181° |
| 2026-04-20 14:11 | 52.99938 | 10.44411 | 25689 ft | 454 kts | 181° |
| 2026-04-20 14:11 | 52.96761 | 10.44097 | 26102 ft | 456 kts | 181° |
| 2026-04-20 14:11 | 52.93593 | 10.43787 | 26524 ft | 459 kts | 181° |
| 2026-04-20 14:11 | 52.90394 | 10.43473 | 26937 ft | 462 kts | 181° |
| 2026-04-20 14:12 | 52.87174 | 10.43158 | 27337 ft | 464 kts | 181° |
| 2026-04-20 14:12 | 52.83975 | 10.42845 | 27721 ft | 467 kts | 181° |
| 2026-04-20 14:12 | 52.80724 | 10.42526 | 28104 ft | 469 kts | 181° |
| 2026-04-20 14:12 | 52.77456 | 10.42206 | 28493 ft | 471 kts | 181° |
| 2026-04-20 14:13 | 52.74185 | 10.41886 | 28889 ft | 472 kts | 181° |
| 2026-04-20 14:13 | 52.70911 | 10.41487 | 29406 ft | 472 kts | 185° |
| 2026-04-20 14:13 | 52.67671 | 10.40453 | 29985 ft | 473 kts | 191° |
| 2026-04-20 14:13 | 52.64464 | 10.39243 | 30484 ft | 471 kts | 191° |
| 2026-04-20 14:14 | 52.61265 | 10.38046 | 30915 ft | 471 kts | 191° |
| 2026-04-20 14:14 | 52.58074 | 10.36864 | 31347 ft | 470 kts | 191° |
| 2026-04-20 14:14 | 52.54874 | 10.35688 | 31770 ft | 470 kts | 191° |
| 2026-04-20 14:14 | 52.51690 | 10.34519 | 32254 ft | 468 kts | 192° |
| 2026-04-20 14:15 | 52.48517 | 10.33355 | 32690 ft | 467 kts | 192° |
| 2026-04-20 14:15 | 52.45337 | 10.32189 | 33093 ft | 467 kts | 192° |
| 2026-04-20 14:15 | 52.42175 | 10.31029 | 33473 ft | 467 kts | 192° |
| 2026-04-20 14:15 | 52.38985 | 10.29857 | 33817 ft | 469 kts | 193° |
| 2026-04-20 14:16 | 52.35802 | 10.28683 | 34111 ft | 469 kts | 193° |
| 2026-04-20 14:16 | 52.32663 | 10.27529 | 34159 ft | 468 kts | 193° |
| 2026-04-20 14:16 | 52.26320 | 10.25206 | 34163 ft | 467 kts | 193° |
| 2026-04-20 14:17 | 52.19978 | 10.22900 | 34169 ft | 466 kts | 193° |
| 2026-04-20 14:17 | 52.13640 | 10.20608 | 34168 ft | 467 kts | 193° |
| 2026-04-20 14:18 | 52.07301 | 10.18310 | 34174 ft | 466 kts | 194° |
| 2026-04-20 14:18 | 52.00980 | 10.16020 | 34175 ft | 466 kts | 194° |
| 2026-04-20 14:19 | 51.94659 | 10.13734 | 34172 ft | 465 kts | 193° |
| 2026-04-20 14:19 | 51.88338 | 10.11470 | 34171 ft | 465 kts | 194° |
| 2026-04-20 14:20 | 51.82017 | 10.09216 | 34168 ft | 465 kts | 194° |
| 2026-04-20 14:20 | 51.75708 | 10.06967 | 34165 ft | 465 kts | 194° |
| 2026-04-20 14:21 | 51.69393 | 10.04712 | 34167 ft | 465 kts | 194° |
| 2026-04-20 14:21 | 51.63077 | 10.02460 | 34160 ft | 465 kts | 194° |
| 2026-04-20 14:22 | 51.56758 | 10.00224 | 34154 ft | 465 kts | 194° |
| 2026-04-20 14:22 | 51.51500 | 9.98371 | 34156 ft | 465 kts | 194° |
| 2026-04-20 14:23 | 51.45178 | 9.96143 | 34153 ft | 465 kts | 194° |
| 2026-04-20 14:23 | 51.38852 | 9.93916 | 34155 ft | 465 kts | 194° |
| 2026-04-20 14:24 | 51.32529 | 9.91700 | 34143 ft | 465 kts | 195° |
| 2026-04-20 14:24 | 51.26238 | 9.89512 | 34139 ft | 465 kts | 195° |
| 2026-04-20 14:25 | 51.19832 | 9.87962 | 34129 ft | 468 kts | 185° |
| 2026-04-20 14:25 | 51.13271 | 9.87392 | 34120 ft | 469 kts | 186° |
| 2026-04-20 14:26 | 51.06803 | 9.86831 | 34122 ft | 468 kts | 186° |
| 2026-04-20 14:26 | 51.00294 | 9.86262 | 34126 ft | 469 kts | 186° |
| 2026-04-20 14:27 | 50.93779 | 9.85703 | 34130 ft | 469 kts | 186° |
| 2026-04-20 14:27 | 50.87255 | 9.85149 | 34123 ft | 468 kts | 187° |
| 2026-04-20 14:28 | 50.80744 | 9.84584 | 34126 ft | 468 kts | 187° |
| 2026-04-20 14:28 | 50.74233 | 9.84013 | 34130 ft | 468 kts | 187° |
| 2026-04-20 14:29 | 50.67718 | 9.83453 | 34122 ft | 468 kts | 187° |
| 2026-04-20 14:29 | 50.61224 | 9.82895 | 34123 ft | 468 kts | 187° |
| 2026-04-20 14:30 | 50.54729 | 9.82339 | 34268 ft | 465 kts | 187° |
| 2026-04-20 14:30 | 50.51567 | 9.82077 | 35246 ft | 449 kts | 186° |
| 2026-04-20 14:30 | 50.48464 | 9.81819 | 35739 ft | 446 kts | 186° |
| 2026-04-20 14:31 | 50.45347 | 9.81556 | 35967 ft | 449 kts | 187° |
| 2026-04-20 14:31 | 50.42204 | 9.81282 | 36097 ft | 454 kts | 187° |
| 2026-04-20 14:31 | 50.35864 | 9.80722 | 36117 ft | 464 kts | 187° |
| 2026-04-20 14:32 | 50.29383 | 9.80185 | 36125 ft | 467 kts | 187° |
| 2026-04-20 14:32 | 50.22900 | 9.79647 | 36099 ft | 467 kts | 187° |
| 2026-04-20 14:33 | 50.19649 | 9.79372 | 35918 ft | 464 kts | 187° |
| 2026-04-20 14:33 | 50.16429 | 9.79100 | 36080 ft | 466 kts | 187° |
| 2026-04-20 14:33 | 50.09936 | 9.78556 | 36118 ft | 467 kts | 187° |
| 2026-04-20 14:34 | 50.03431 | 9.78529 | 35692 ft | 469 kts | 182° |
| 2026-04-20 14:34 | 50.00156 | 9.78740 | 34942 ft | 469 kts | 183° |
| 2026-04-20 14:34 | 49.96888 | 9.78952 | 34188 ft | 471 kts | 184° |
| 2026-04-20 14:35 | 49.93608 | 9.79164 | 33323 ft | 472 kts | 184° |
| 2026-04-20 14:35 | 49.90317 | 9.79373 | 32448 ft | 473 kts | 184° |
| 2026-04-20 14:35 | 49.87064 | 9.79582 | 31582 ft | 473 kts | 184° |
| 2026-04-20 14:35 | 49.83768 | 9.79797 | 30665 ft | 475 kts | 183° |
| 2026-04-20 14:36 | 49.80462 | 9.80012 | 29908 ft | 472 kts | 183° |
| 2026-04-20 14:36 | 49.77225 | 9.80224 | 29112 ft | 466 kts | 184° |
| 2026-04-20 14:36 | 49.73984 | 9.80430 | 28180 ft | 464 kts | 184° |
| 2026-04-20 14:36 | 49.70759 | 9.80633 | 27415 ft | 459 kts | 183° |
| 2026-04-20 14:37 | 49.67587 | 9.80815 | 26704 ft | 454 kts | 183° |
| 2026-04-20 14:37 | 49.64463 | 9.80835 | 26050 ft | 443 kts | 189° |
| 2026-04-20 14:37 | 49.61497 | 9.79877 | 25421 ft | 430 kts | 201° |
| 2026-04-20 14:37 | 49.58650 | 9.78481 | 24740 ft | 426 kts | 201° |
| 2026-04-20 14:38 | 49.55845 | 9.77091 | 24072 ft | 422 kts | 201° |
| 2026-04-20 14:38 | 49.53069 | 9.75713 | 23393 ft | 417 kts | 202° |
| 2026-04-20 14:38 | 49.50322 | 9.74344 | 22707 ft | 413 kts | 202° |
| 2026-04-20 14:38 | 49.47604 | 9.72989 | 22031 ft | 409 kts | 202° |
| 2026-04-20 14:39 | 49.44911 | 9.71649 | 21406 ft | 405 kts | 202° |
| 2026-04-20 14:39 | 49.42237 | 9.70325 | 20806 ft | 402 kts | 201° |
| 2026-04-20 14:39 | 49.39584 | 9.69013 | 20244 ft | 399 kts | 201° |
| 2026-04-20 14:39 | 49.36986 | 9.67727 | 19719 ft | 396 kts | 201° |
| 2026-04-20 14:40 | 49.34364 | 9.66434 | 19189 ft | 394 kts | 201° |
| 2026-04-20 14:40 | 49.31764 | 9.65156 | 18668 ft | 390 kts | 201° |
| 2026-04-20 14:40 | 49.29205 | 9.63903 | 17848 ft | 384 kts | 201° |
| 2026-04-20 14:40 | 49.26665 | 9.62659 | 16897 ft | 379 kts | 201° |
| 2026-04-20 14:41 | 49.24167 | 9.61433 | 15989 ft | 373 kts | 201° |
| 2026-04-20 14:41 | 49.21710 | 9.60232 | 15122 ft | 368 kts | 201° |
| 2026-04-20 14:41 | 49.19292 | 9.59050 | 14261 ft | 363 kts | 201° |
| 2026-04-20 14:41 | 49.16907 | 9.57883 | 13360 ft | 357 kts | 201° |
| 2026-04-20 14:42 | 49.14560 | 9.56736 | 12434 ft | 352 kts | 201° |
| 2026-04-20 14:42 | 49.12246 | 9.55606 | 11487 ft | 346 kts | 201° |
| 2026-04-20 14:42 | 49.09968 | 9.54496 | 10615 ft | 343 kts | 200° |
| 2026-04-20 14:42 | 49.07703 | 9.53389 | 10238 ft | 342 kts | 200° |
| 2026-04-20 14:43 | 49.05458 | 9.52292 | 9661 ft | 335 kts | 200° |
| 2026-04-20 14:43 | 49.03245 | 9.51212 | 8638 ft | 332 kts | 200° |
| 2026-04-20 14:43 | 49.01060 | 9.50150 | 7657 ft | 328 kts | 200° |
| 2026-04-20 14:43 | 48.98900 | 9.49104 | 6719 ft | 324 kts | 200° |
| 2026-04-20 14:44 | 48.96803 | 9.48088 | 6048 ft | 314 kts | 200° |
| 2026-04-20 14:44 | 48.94758 | 9.47101 | 5510 ft | 300 kts | 200° |
| 2026-04-20 14:44 | 48.92814 | 9.46150 | 5003 ft | 288 kts | 200° |
| 2026-04-20 14:44 | 48.90912 | 9.45254 | 4616 ft | 284 kts | 196° |
| 2026-04-20 14:45 | 48.89009 | 9.44559 | 4225 ft | 280 kts | 194° |
| 2026-04-20 14:45 | 48.87127 | 9.43914 | 4002 ft | 273 kts | 194° |
| 2026-04-20 14:45 | 48.85267 | 9.43290 | 4009 ft | 274 kts | 194° |
| 2026-04-20 14:45 | 48.83425 | 9.42912 | 4003 ft | 260 kts | 178° |
| 2026-04-20 14:46 | 48.81703 | 9.43283 | 3997 ft | 239 kts | 171° |
| 2026-04-20 14:46 | 48.80137 | 9.43683 | 4009 ft | 218 kts | 171° |
| 2026-04-20 14:46 | 48.78719 | 9.44046 | 4021 ft | 196 kts | 171° |
| 2026-04-20 14:46 | 48.77448 | 9.44378 | 4005 ft | 177 kts | 170° |
| 2026-04-20 14:47 | 48.76288 | 9.44690 | 4006 ft | 165 kts | 171° |
| 2026-04-20 14:47 | 48.75144 | 9.45014 | 4010 ft | 171 kts | 170° |
| 2026-04-20 14:47 | 48.73953 | 9.45345 | 4008 ft | 172 kts | 170° |
| 2026-04-20 14:48 | 48.71587 | 9.45999 | 3784 ft | 174 kts | 169° |
| 2026-04-20 14:48 | 48.70396 | 9.46309 | 3621 ft | 173 kts | 172° |
| 2026-04-20 14:48 | 48.69261 | 9.45958 | 3460 ft | 167 kts | 217° |
| 2026-04-20 14:48 | 48.68545 | 9.44634 | 3309 ft | 163 kts | 253° |
| 2026-04-20 14:49 | 48.68594 | 9.43023 | 3159 ft | 153 kts | 297° |
| 2026-04-20 14:49 | 48.69243 | 9.41801 | 3065 ft | 148 kts | 323° |
| 2026-04-20 14:49 | 48.70091 | 9.40961 | 3047 ft | 144 kts | 329° |
| 2026-04-20 14:49 | 48.70863 | 9.40043 | 3070 ft | 142 kts | 311° |
| 2026-04-20 14:50 | 48.71278 | 9.38653 | 3060 ft | 148 kts | 293° |
| 2026-04-20 14:50 | 48.71550 | 9.37151 | 3028 ft | 151 kts | 285° |
| 2026-04-20 14:50 | 48.71496 | 9.35530 | 2809 ft | 156 kts | 264° |
| 2026-04-20 14:50 | 48.71195 | 9.33929 | 2563 ft | 159 kts | 255° |
| 2026-04-20 14:51 | 48.70861 | 9.32370 | 2339 ft | 152 kts | 261° |
| 2026-04-20 14:51 | 48.70621 | 9.30836 | 2127 ft | 148 kts | 262° |
| 2026-04-20 14:51 | 48.70341 | 9.29344 | 1887 ft | 146 kts | 258° |
| 2026-04-20 14:51 | 48.70061 | 9.27904 | 1692 ft | 141 kts | 258° |
| 2026-04-20 14:52 | 48.69802 | 9.26499 | 1488 ft | 137 kts | 257° |
| 2026-04-20 14:52 | 48.69539 | 9.25111 | 1330 ft | 139 kts | 258° |
| 2026-04-20 14:52 | 48.69280 | 9.23736 | 1206 ft | 127 kts | 258° |
| 2026-04-20 14:52 | 48.69067 | 9.22607 | 1225 ft | 94 kts | 254° |
| 2026-04-20 14:53 | 48.68914 | 9.21801 | 1251 ft | 65 kts | 252° |
| 2026-04-20 14:53 | 48.68816 | 9.21286 | 1261 ft | 41 kts | 254° |
| 2026-04-20 14:53 | 48.68745 | 9.20899 | 1274 ft | 36 kts | 254° |
| 2026-04-20 14:53 | 48.68690 | 9.20598 | 1271 ft | 24 kts | 255° |
| 2026-04-20 14:54 | 48.68674 | 9.20362 | 1277 ft | 21 kts | 278° |
| 2026-04-20 14:54 | 48.68701 | 9.20210 | 1282 ft | 11 kts | 285° |
| 2026-04-20 14:54 | 48.68708 | 9.20169 | 1284 ft | 0 kts | 285° |
| 2026-04-20 14:54 | 48.68709 | 9.20162 | 1284 ft | 2 kts | 285° |
| 2026-04-20 14:55 | 48.68716 | 9.20123 | 1287 ft | 5 kts | 284° |
| 2026-04-20 14:55 | 48.68730 | 9.20055 | 1289 ft | 9 kts | 295° |
| 2026-04-20 14:55 | 48.68776 | 9.19976 | 1293 ft | 11 kts | 314° |
| 2026-04-20 14:55 | 48.68833 | 9.19901 | 1299 ft | 9 kts | 332° |
| 2026-04-20 14:56 | 48.68884 | 9.19873 | 1302 ft | 6 kts | 331° |
| 2026-04-20 14:56 | 48.68890 | 9.19810 | 1305 ft | 8 kts | 251° |
| 2026-04-20 14:56 | 48.68875 | 9.19739 | 1307 ft | 6 kts | 253° |
| 2026-04-20 14:56 | 48.68864 | 9.19683 | 1308 ft | 5 kts | 254° |
| 2026-04-20 14:57 | 48.68856 | 9.19639 | 1309 ft | 4 kts | 258° |
| 2026-04-20 14:57 | 48.68868 | 9.19608 | 1311 ft | 3 kts | 318° |
| 2026-04-20 14:57 | 48.68890 | 9.19595 | 1312 ft | 3 kts | 343° |
| 2026-04-20 14:57 | 48.68912 | 9.19586 | 1314 ft | 3 kts | 344° |
| 2026-04-20 14:58 | 48.68926 | 9.19580 | 1315 ft | 0 kts | 344° |
| 2026-04-20 15:00 | 48.68925 | 9.19580 | 1315 ft | 0 kts | 344° |
| 2026-04-20 15:01 | 48.68926 | 9.19580 | 1315 ft | 0 kts | 344° |